createdAt,value
2023-04-11T00:00:20.724Z,24.61
2023-04-11T00:01:20.700Z,24.60
2023-04-11T00:02:20.844Z,24.60
2023-04-11T00:03:20.889Z,24.61
2023-04-11T00:04:21.000Z,24.61
2023-04-11T00:05:20.564Z,24.62
2023-04-11T00:06:20.559Z,24.62
2023-04-11T00:07:20.509Z,24.62
2023-04-11T00:08:20.503Z,24.62
2023-04-11T00:09:20.461Z,24.62
2023-04-11T00:10:20.448Z,24.61
2023-04-11T00:11:20.421Z,24.61
2023-04-11T00:12:20.468Z,24.61
2023-04-11T00:13:20.491Z,24.62
2023-04-11T00:14:20.522Z,24.62
2023-04-11T00:15:20.544Z,24.61
2023-04-11T00:16:20.618Z,24.61
2023-04-11T00:17:20.620Z,24.61
2023-04-11T00:18:20.622Z,24.61
2023-04-11T00:19:20.670Z,24.60
2023-04-11T00:20:20.686Z,24.61
2023-04-11T00:21:20.795Z,24.61
2023-04-11T00:22:20.762Z,24.60
2023-04-11T00:23:20.804Z,24.60
2023-04-11T00:24:20.807Z,24.61
2023-04-11T00:25:20.870Z,24.61
2023-04-11T00:26:20.857Z,24.60
2023-04-11T00:27:22.054Z,24.60
2023-04-11T00:28:20.932Z,24.59
2023-04-11T00:29:20.891Z,24.59
2023-04-11T00:30:20.869Z,24.59
2023-04-11T00:31:20.854Z,24.59
2023-04-11T00:32:20.808Z,24.59
2023-04-11T00:33:20.780Z,24.58
2023-04-11T00:34:20.764Z,24.59
2023-04-11T00:35:20.718Z,24.59
2023-04-11T00:36:20.744Z,24.58
2023-04-11T00:37:20.715Z,24.58
2023-04-11T00:38:20.722Z,24.58
2023-04-11T00:39:20.760Z,24.58
2023-04-11T00:40:20.802Z,24.58
2023-04-11T00:41:20.834Z,24.57
2023-04-11T00:42:20.865Z,24.57
2023-04-11T00:43:20.892Z,24.57
2023-04-11T00:44:20.963Z,24.57
2023-04-11T00:45:20.976Z,24.56
2023-04-11T00:46:21.098Z,24.57
2023-04-11T00:47:21.103Z,24.57
2023-04-11T00:48:21.094Z,24.57
2023-04-11T00:49:21.114Z,24.57
2023-04-11T00:50:21.171Z,24.57
2023-04-11T00:51:21.195Z,24.57
2023-04-11T00:52:21.256Z,24.56
2023-04-11T00:53:21.287Z,24.56
2023-04-11T00:54:21.303Z,24.56
2023-04-11T00:55:21.338Z,24.56
2023-04-11T00:56:21.358Z,24.57
2023-04-11T00:57:21.399Z,24.57
2023-04-11T00:58:21.440Z,24.57
2023-04-11T00:59:21.470Z,24.56
2023-04-11T01:00:21.504Z,24.56
2023-04-11T01:01:22.564Z,24.56
2023-04-11T01:02:21.590Z,24.55
2023-04-11T01:03:21.707Z,24.55
2023-04-11T01:04:21.492Z,24.56
2023-04-11T01:05:21.413Z,24.55
2023-04-11T01:06:21.382Z,24.54
2023-04-11T01:07:21.379Z,24.55
2023-04-11T01:08:21.333Z,24.55
2023-04-11T01:09:21.305Z,24.54
2023-04-11T01:10:21.336Z,24.55
2023-04-11T01:11:21.374Z,24.54
2023-04-11T01:12:21.416Z,24.54
2023-04-11T01:13:21.461Z,24.54
2023-04-11T01:14:21.491Z,24.54
2023-04-11T01:15:21.537Z,24.54
2023-04-11T01:16:21.893Z,24.55
2023-04-11T01:17:21.607Z,24.55
2023-04-11T01:18:21.632Z,24.55
2023-04-11T01:19:21.690Z,24.55
2023-04-11T01:20:21.713Z,24.54
2023-04-11T01:21:21.766Z,24.54
2023-04-11T01:22:21.787Z,24.54
2023-04-11T01:23:21.834Z,24.55
2023-04-11T01:24:21.843Z,24.54
2023-04-11T01:25:21.906Z,24.54
2023-04-11T01:26:21.895Z,24.53
2023-04-11T01:27:21.925Z,24.53
2023-04-11T01:28:21.929Z,24.53
2023-04-11T01:29:21.991Z,24.53
2023-04-11T01:30:22.019Z,24.53
2023-04-11T01:31:22.070Z,24.54
2023-04-11T01:32:22.062Z,24.53
2023-04-11T01:33:22.117Z,24.53
2023-04-11T01:34:22.131Z,24.53
2023-04-11T01:35:22.177Z,24.53
2023-04-11T01:36:22.199Z,24.53
2023-04-11T01:37:22.257Z,24.53
2023-04-11T01:38:22.259Z,24.52
2023-04-11T01:39:22.319Z,24.53
2023-04-11T01:40:22.333Z,24.52
2023-04-11T01:41:22.387Z,24.52
2023-04-11T01:42:22.402Z,24.52
2023-04-11T01:43:22.414Z,24.52
2023-04-11T01:44:22.429Z,24.51
2023-04-11T01:45:22.447Z,24.51
2023-04-11T01:46:22.455Z,24.52
2023-04-11T01:47:22.506Z,24.52
2023-04-11T01:48:22.566Z,24.52
2023-04-11T01:49:22.511Z,24.51
2023-04-11T01:50:22.510Z,24.51
2023-04-11T01:51:22.511Z,24.51
2023-04-11T01:52:22.540Z,24.51
2023-04-11T01:53:22.539Z,24.52
2023-04-11T01:54:22.573Z,24.51
2023-04-11T01:55:22.612Z,24.51
2023-04-11T01:56:22.648Z,24.51
2023-04-11T01:57:22.669Z,24.51
2023-04-11T01:58:22.674Z,24.51
2023-04-11T01:59:22.700Z,24.51
2023-04-11T02:00:22.709Z,24.50
2023-04-11T02:01:22.736Z,24.50
2023-04-11T02:02:22.840Z,24.51
2023-04-11T02:03:23.084Z,24.51
2023-04-11T02:04:22.896Z,24.50
2023-04-11T02:05:22.821Z,24.50
2023-04-11T02:06:22.848Z,24.49
2023-04-11T02:07:22.868Z,24.49
2023-04-11T02:08:22.904Z,24.50
2023-04-11T02:09:22.921Z,24.50
2023-04-11T02:10:22.946Z,24.49
2023-04-11T02:11:23.001Z,24.50
2023-04-11T02:12:23.036Z,24.49
2023-04-11T02:13:23.078Z,24.50
2023-04-11T02:14:23.111Z,24.51
2023-04-11T02:15:23.154Z,24.50
2023-04-11T02:16:23.254Z,24.49
2023-04-11T02:17:23.239Z,24.49
2023-04-11T02:18:23.269Z,24.50
2023-04-11T02:19:23.334Z,24.50
2023-04-11T02:20:23.350Z,24.50
2023-04-11T02:21:23.382Z,24.50
2023-04-11T02:22:23.418Z,24.49
2023-04-11T02:23:24.253Z,24.50
2023-04-11T02:24:23.497Z,24.49
2023-04-11T02:25:23.537Z,24.49
2023-04-11T02:26:23.588Z,24.49
2023-04-11T02:27:23.616Z,24.49
2023-04-11T02:28:23.665Z,24.49
2023-04-11T02:29:23.688Z,24.48
2023-04-11T02:30:23.725Z,24.48
2023-04-11T02:31:23.888Z,24.47
2023-04-11T02:32:23.864Z,24.47
2023-04-11T02:33:23.864Z,24.48
2023-04-11T02:34:23.904Z,24.47
2023-04-11T02:35:23.934Z,24.48
2023-04-11T02:36:23.983Z,24.47
2023-04-11T02:37:24.012Z,24.47
2023-04-11T02:38:24.060Z,24.47
2023-04-11T02:39:24.050Z,24.47
2023-04-11T02:40:24.017Z,24.47
2023-04-11T02:41:23.994Z,24.47
2023-04-11T02:42:23.930Z,24.45
2023-04-11T02:43:23.909Z,24.45
2023-04-11T02:44:23.864Z,24.43
2023-04-11T02:45:23.839Z,24.42
2023-04-11T02:46:23.812Z,24.40
2023-04-11T02:47:23.841Z,24.37
2023-04-11T02:48:23.752Z,24.37
2023-04-11T02:49:23.760Z,24.38
2023-04-11T02:50:23.727Z,24.35
2023-04-11T02:51:23.700Z,24.31
2023-04-11T02:52:23.672Z,24.27
2023-04-11T02:53:23.662Z,24.25
2023-04-11T02:54:23.651Z,24.20
2023-04-11T02:55:23.624Z,24.18
2023-04-11T02:56:23.601Z,24.16
2023-04-11T02:57:23.609Z,24.13
2023-04-11T02:58:23.608Z,24.10
2023-04-11T02:59:23.615Z,24.07
2023-04-11T03:00:23.609Z,24.04
2023-04-11T03:01:23.661Z,24.01
2023-04-11T03:02:23.861Z,23.99
2023-04-11T03:03:23.743Z,23.96
2023-04-11T03:04:23.652Z,23.94
2023-04-11T03:05:23.677Z,23.92
2023-04-11T03:06:23.684Z,23.90
2023-04-11T03:07:23.724Z,23.87
2023-04-11T03:08:23.728Z,23.86
2023-04-11T03:09:23.739Z,23.84
2023-04-11T03:10:23.793Z,23.82
2023-04-11T03:11:23.823Z,23.80
2023-04-11T03:12:23.820Z,23.79
2023-04-11T03:13:23.841Z,23.77
2023-04-11T03:14:23.881Z,23.75
2023-04-11T03:15:23.902Z,23.72
2023-04-11T03:16:24.009Z,23.71
2023-04-11T03:17:23.980Z,23.69
2023-04-11T03:18:24.022Z,23.68
2023-04-11T03:19:24.040Z,23.65
2023-04-11T03:20:24.099Z,23.62
2023-04-11T03:21:24.123Z,23.61
2023-04-11T03:22:24.144Z,23.61
2023-04-11T03:23:24.204Z,23.58
2023-04-11T03:24:24.238Z,23.58
2023-04-11T03:25:24.278Z,23.58
2023-04-11T03:26:24.325Z,23.56
2023-04-11T03:27:24.363Z,23.54
2023-04-11T03:28:24.390Z,23.54
2023-04-11T03:29:24.443Z,23.53
2023-04-11T03:30:24.468Z,23.52
2023-04-11T03:31:24.519Z,23.51
2023-04-11T03:32:24.590Z,23.48
2023-04-11T03:33:24.583Z,23.48
2023-04-11T03:34:24.616Z,23.47
2023-04-11T03:35:24.627Z,23.45
2023-04-11T03:36:24.656Z,23.45
2023-04-11T03:37:24.664Z,23.42
2023-04-11T03:38:24.686Z,23.43
2023-04-11T03:39:24.702Z,23.41
2023-04-11T03:40:24.729Z,23.38
2023-04-11T03:41:24.746Z,23.38
2023-04-11T03:42:24.775Z,23.38
2023-04-11T03:43:24.821Z,23.38
2023-04-11T03:44:24.857Z,23.37
2023-04-11T03:45:24.905Z,23.35
2023-04-11T03:46:24.991Z,23.34
2023-04-11T03:47:24.960Z,23.34
2023-04-11T03:48:24.960Z,23.34
2023-04-11T03:49:24.993Z,23.32
2023-04-11T03:50:25.027Z,23.32
2023-04-11T03:51:25.078Z,23.31
2023-04-11T03:52:25.146Z,23.30
2023-04-11T03:53:25.127Z,23.30
2023-04-11T03:54:25.144Z,23.28
2023-04-11T03:55:25.135Z,23.28
2023-04-11T03:56:25.101Z,23.28
2023-04-11T03:57:25.115Z,23.27
2023-04-11T03:58:25.124Z,23.26
2023-04-11T03:59:25.156Z,23.27
2023-04-11T04:00:25.156Z,23.25
2023-04-11T04:01:25.166Z,23.24
2023-04-11T04:02:25.319Z,23.24
2023-04-11T04:03:25.383Z,23.23
2023-04-11T04:04:25.316Z,23.23
2023-04-11T04:05:25.295Z,23.23
2023-04-11T04:06:25.300Z,23.22
2023-04-11T04:07:25.309Z,23.21
2023-04-11T04:08:25.362Z,23.21
2023-04-11T04:09:25.361Z,23.19
2023-04-11T04:10:25.374Z,23.18
2023-04-11T04:11:25.337Z,23.19
2023-04-11T04:12:25.352Z,23.18
2023-04-11T04:13:25.357Z,23.17
2023-04-11T04:14:25.365Z,23.16
2023-04-11T04:15:25.414Z,23.16
2023-04-11T04:16:25.498Z,23.15
2023-04-11T04:17:25.587Z,23.14
2023-04-11T04:18:25.640Z,23.13
2023-04-11T04:19:25.628Z,23.12
2023-04-11T04:20:25.618Z,23.12
2023-04-11T04:21:25.600Z,23.11
2023-04-11T04:22:25.588Z,23.10
2023-04-11T04:23:25.592Z,23.09
2023-04-11T04:24:25.657Z,23.08
2023-04-11T04:25:26.162Z,23.08
2023-04-11T04:26:25.745Z,23.08
2023-04-11T04:27:25.731Z,23.06
2023-04-11T04:28:25.683Z,23.06
2023-04-11T04:29:25.687Z,23.06
2023-04-11T04:30:25.665Z,23.05
2023-04-11T04:31:25.908Z,23.05
2023-04-11T04:32:25.763Z,23.04
2023-04-11T04:33:27.560Z,23.04
2023-04-11T04:34:25.720Z,23.04
2023-04-11T04:35:25.791Z,23.04
2023-04-11T04:36:25.699Z,23.02
2023-04-11T04:37:25.685Z,23.03
2023-04-11T04:38:25.668Z,23.02
2023-04-11T04:39:25.642Z,23.02
2023-04-11T04:40:25.615Z,23.02
2023-04-11T04:41:25.588Z,23.02
2023-04-11T04:42:25.570Z,23.00
2023-04-11T04:43:25.582Z,22.99
2023-04-11T04:44:25.520Z,22.99
2023-04-11T04:45:25.494Z,22.99
2023-04-11T04:46:25.487Z,22.98
2023-04-11T04:47:25.482Z,22.99
2023-04-11T04:48:25.500Z,22.98
2023-04-11T04:49:25.425Z,22.98
2023-04-11T04:50:25.418Z,22.96
2023-04-11T04:51:25.356Z,22.95
2023-04-11T04:52:25.341Z,22.95
2023-04-11T04:53:25.332Z,22.94
2023-04-11T04:54:25.281Z,22.96
2023-04-11T04:55:25.263Z,22.95
2023-04-11T04:56:25.241Z,22.94
2023-04-11T04:57:25.198Z,22.94
2023-04-11T04:58:25.189Z,22.93
2023-04-11T04:59:25.170Z,22.93
2023-04-11T05:00:25.795Z,22.94
2023-04-11T05:01:25.154Z,22.93
2023-04-11T05:02:25.161Z,22.92
2023-04-11T05:03:25.225Z,22.91
2023-04-11T05:04:25.126Z,22.91
2023-04-11T05:05:25.015Z,22.89
2023-04-11T05:06:24.985Z,22.89
2023-04-11T05:07:24.953Z,22.88
2023-04-11T05:08:24.945Z,22.88
2023-04-11T05:09:24.921Z,22.87
2023-04-11T05:10:24.872Z,22.87
2023-04-11T05:11:24.866Z,22.87
2023-04-11T05:12:24.840Z,22.88
2023-04-11T05:13:24.825Z,22.88
2023-04-11T05:14:24.828Z,22.87
2023-04-11T05:15:24.789Z,22.87
2023-04-11T05:16:24.789Z,22.86
2023-04-11T05:17:25.497Z,22.86
2023-04-11T05:18:24.709Z,22.86
2023-04-11T05:19:24.701Z,22.84
2023-04-11T05:20:24.701Z,22.85
2023-04-11T05:21:24.632Z,22.85
2023-04-11T05:22:24.605Z,22.85
2023-04-11T05:23:24.592Z,22.83
2023-04-11T05:24:24.574Z,22.84
2023-04-11T05:25:24.543Z,22.83
2023-04-11T05:26:24.519Z,22.82
2023-04-11T05:27:24.499Z,22.83
2023-04-11T05:28:24.510Z,22.82
2023-04-11T05:29:24.491Z,22.81
2023-04-11T05:30:24.444Z,22.80
2023-04-11T05:31:24.427Z,22.79
2023-04-11T05:32:24.393Z,22.82
2023-04-11T05:33:24.392Z,22.86
2023-04-11T05:34:24.411Z,22.91
2023-04-11T05:35:24.352Z,22.98
2023-04-11T05:36:24.349Z,23.04
2023-04-11T05:37:24.318Z,23.09
2023-04-11T05:38:24.358Z,23.15
2023-04-11T05:39:24.407Z,23.18
2023-04-11T05:40:24.475Z,23.24
2023-04-11T05:41:24.612Z,23.29
2023-04-11T05:42:24.528Z,23.35
2023-04-11T05:43:24.573Z,23.39
2023-04-11T05:44:24.613Z,23.43
2023-04-11T05:45:24.661Z,23.48
2023-04-11T05:46:24.731Z,23.52
2023-04-11T05:47:24.735Z,23.55
2023-04-11T05:48:24.695Z,23.61
2023-04-11T05:49:24.878Z,23.66
2023-04-11T05:50:24.767Z,23.70
2023-04-11T05:51:24.741Z,23.75
2023-04-11T05:52:24.764Z,23.79
2023-04-11T05:53:24.745Z,23.82
2023-04-11T05:54:24.691Z,23.85
2023-04-11T05:55:24.651Z,23.88
2023-04-11T05:56:24.652Z,23.91
2023-04-11T05:57:24.595Z,23.94
2023-04-11T05:58:24.575Z,23.97
2023-04-11T05:59:27.693Z,23.99
2023-04-11T06:00:24.504Z,24.02
2023-04-11T06:01:24.475Z,24.03
2023-04-11T06:02:24.503Z,24.05
2023-04-11T06:03:24.522Z,24.08
2023-04-11T06:04:24.539Z,24.11
2023-04-11T06:05:24.346Z,24.13
2023-04-11T06:06:24.307Z,24.15
2023-04-11T06:07:24.298Z,24.17
2023-04-11T06:08:24.265Z,24.20
2023-04-11T06:09:24.269Z,24.22
2023-04-11T06:10:24.174Z,24.25
2023-04-11T06:11:24.131Z,24.26
2023-04-11T06:12:24.105Z,24.29
2023-04-11T06:13:24.080Z,24.30
2023-04-11T06:14:24.033Z,24.33
2023-04-11T06:15:24.090Z,24.34
2023-04-11T06:16:24.085Z,24.36
2023-04-11T06:17:23.902Z,24.38
2023-04-11T06:18:23.876Z,24.40
2023-04-11T06:19:23.815Z,24.42
2023-04-11T06:20:23.841Z,24.44
2023-04-11T06:21:23.762Z,24.46
2023-04-11T06:22:23.724Z,24.48
2023-04-11T06:23:23.692Z,24.50
2023-04-11T06:24:23.641Z,24.52
2023-04-11T06:25:23.606Z,24.53
2023-04-11T06:26:23.591Z,24.55
2023-04-11T06:27:23.592Z,24.58
2023-04-11T06:28:23.665Z,24.59
2023-04-11T06:29:23.725Z,24.62
2023-04-11T06:30:23.673Z,24.65
2023-04-11T06:31:23.786Z,24.66
2023-04-11T06:32:23.685Z,24.67
2023-04-11T06:33:23.660Z,24.69
2023-04-11T06:34:23.600Z,24.71
2023-04-11T06:35:23.568Z,24.73
2023-04-11T06:36:23.518Z,24.74
2023-04-11T06:37:23.543Z,24.77
2023-04-11T06:38:23.470Z,24.79
2023-04-11T06:39:23.428Z,24.81
2023-04-11T06:40:23.377Z,24.83
2023-04-11T06:41:23.385Z,24.84
2023-04-11T06:42:23.312Z,24.83
2023-04-11T06:43:23.303Z,24.85
2023-04-11T06:44:23.284Z,24.87
2023-04-11T06:45:23.217Z,24.87
2023-04-11T06:46:23.215Z,24.83
2023-04-11T06:47:23.132Z,24.77
2023-04-11T06:48:23.083Z,24.75
2023-04-11T06:49:23.085Z,24.70
2023-04-11T06:50:23.038Z,24.68
2023-04-11T06:51:23.011Z,24.66
2023-04-11T06:52:22.945Z,24.64
2023-04-11T06:53:22.919Z,24.64
2023-04-11T06:54:22.908Z,24.63
2023-04-11T06:55:22.862Z,24.63
2023-04-11T06:56:22.816Z,24.62
2023-04-11T06:57:22.774Z,24.61
2023-04-11T06:58:22.732Z,24.60
2023-04-11T06:59:24.380Z,24.60
2023-04-11T07:00:22.691Z,24.61
2023-04-11T07:01:22.697Z,24.60
2023-04-11T07:02:22.791Z,24.60
2023-04-11T07:03:22.793Z,24.60
2023-04-11T07:04:22.834Z,24.60
2023-04-11T07:05:22.674Z,24.60
2023-04-11T07:06:22.684Z,24.60
2023-04-11T07:07:22.658Z,24.60
2023-04-11T07:08:22.636Z,24.61
2023-04-11T07:09:22.585Z,24.61
2023-04-11T07:10:22.651Z,24.61
2023-04-11T07:11:22.510Z,24.60
2023-04-11T07:12:22.516Z,24.60
2023-04-11T07:13:22.468Z,24.60
2023-04-11T07:14:22.472Z,24.60
2023-04-11T07:15:22.436Z,24.60
2023-04-11T07:16:22.408Z,24.62
2023-04-11T07:17:22.399Z,24.61
2023-04-11T07:18:22.414Z,24.62
2023-04-11T07:19:22.464Z,24.62
2023-04-11T07:20:22.507Z,24.64
2023-04-11T07:21:22.526Z,24.63
2023-04-11T07:22:22.528Z,24.63
2023-04-11T07:23:23.691Z,24.64
2023-04-11T07:24:22.633Z,24.65
2023-04-11T07:25:22.687Z,24.66
2023-04-11T07:26:22.726Z,24.68
2023-04-11T07:27:22.726Z,24.68
2023-04-11T07:28:22.727Z,24.69
2023-04-11T07:29:22.773Z,24.69
2023-04-11T07:30:22.786Z,24.69
2023-04-11T07:31:22.911Z,24.69
2023-04-11T07:32:22.902Z,24.68
2023-04-11T07:33:22.857Z,24.69
2023-04-11T07:34:22.904Z,24.70
2023-04-11T07:35:22.865Z,24.72
2023-04-11T07:36:22.825Z,24.73
2023-04-11T07:37:22.846Z,24.76
2023-04-11T07:38:22.756Z,24.78
2023-04-11T07:39:22.749Z,24.78
2023-04-11T07:40:22.742Z,24.77
2023-04-11T07:41:22.813Z,24.74
2023-04-11T07:42:22.727Z,24.70
2023-04-11T07:43:22.622Z,24.68
2023-04-11T07:44:24.035Z,24.63
2023-04-11T07:45:22.562Z,24.49
2023-04-11T07:46:22.552Z,24.43
2023-04-11T07:47:22.551Z,24.37
2023-04-11T07:48:22.488Z,24.26
2023-04-11T07:49:22.420Z,24.20
2023-04-11T07:50:22.398Z,24.18
2023-04-11T07:51:22.357Z,24.12
2023-04-11T07:52:22.353Z,24.08
2023-04-11T07:53:22.311Z,24.02
2023-04-11T07:54:22.309Z,23.97
2023-04-11T07:55:22.321Z,23.89
2023-04-11T07:56:22.290Z,23.86
2023-04-11T07:57:22.236Z,23.80
2023-04-11T07:58:22.270Z,23.77
2023-04-11T07:59:22.245Z,23.71
2023-04-11T08:00:22.300Z,23.63
2023-04-11T08:01:22.358Z,23.61
2023-04-11T08:02:22.457Z,23.59
2023-04-11T08:03:22.492Z,23.56
2023-04-11T08:04:22.555Z,23.55
2023-04-11T08:05:22.448Z,23.51
2023-04-11T08:06:22.523Z,23.49
2023-04-11T08:07:22.503Z,23.45
2023-04-11T08:08:22.613Z,23.42
2023-04-11T08:09:22.611Z,23.39
2023-04-11T08:10:22.701Z,23.37
2023-04-11T08:11:22.683Z,23.32
2023-04-11T08:12:22.743Z,23.30
2023-04-11T08:13:22.740Z,23.29
2023-04-11T08:14:22.801Z,23.15
2023-04-11T08:15:22.857Z,23.14
2023-04-11T08:16:22.889Z,23.15
2023-04-11T08:17:28.195Z,23.06
2023-04-11T08:18:23.940Z,23.00
2023-04-11T08:19:22.886Z,22.99
2023-04-11T08:20:22.902Z,22.97
2023-04-11T08:21:22.856Z,22.97
2023-04-11T08:22:22.856Z,22.96
2023-04-11T08:23:22.811Z,22.93
2023-04-11T08:24:22.825Z,22.89
2023-04-11T08:25:22.869Z,22.84
2023-04-11T08:26:22.779Z,22.82
2023-04-11T08:27:22.764Z,22.77
2023-04-11T08:28:22.736Z,22.78
2023-04-11T08:29:22.704Z,22.79
2023-04-11T08:30:22.732Z,22.79
2023-04-11T08:31:22.954Z,22.77
2023-04-11T08:32:22.742Z,22.72
2023-04-11T08:33:22.624Z,22.72
2023-04-11T08:34:22.686Z,22.73
2023-04-11T08:35:22.657Z,22.71
2023-04-11T08:36:22.589Z,22.70
2023-04-11T08:37:22.590Z,22.68
2023-04-11T08:38:22.576Z,22.68
2023-04-11T08:39:22.560Z,22.65
2023-04-11T08:40:22.976Z,22.67
2023-04-11T08:41:22.525Z,22.67
2023-04-11T08:42:22.524Z,22.68
2023-04-11T08:43:22.599Z,22.69
2023-04-11T08:44:22.501Z,22.69
2023-04-11T08:45:22.498Z,22.69
2023-04-11T08:46:22.519Z,22.69
2023-04-11T08:47:22.470Z,22.69
2023-04-11T08:48:22.414Z,22.70
2023-04-11T08:49:22.428Z,22.72
2023-04-11T08:50:22.397Z,22.72
2023-04-11T08:51:22.406Z,22.70
2023-04-11T08:52:22.375Z,22.73
2023-04-11T08:53:22.392Z,22.74
2023-04-11T08:54:22.358Z,22.77
2023-04-11T08:55:22.355Z,22.79
2023-04-11T08:56:22.360Z,22.79
2023-04-11T08:57:22.366Z,22.80
2023-04-11T08:58:22.318Z,22.77
2023-04-11T08:59:22.326Z,22.79
2023-04-11T09:00:22.297Z,22.80
2023-04-11T09:01:22.299Z,22.81
2023-04-11T09:02:22.345Z,22.77
2023-04-11T09:03:22.414Z,22.80
2023-04-11T09:04:22.271Z,22.79
2023-04-11T09:05:22.250Z,22.81
2023-04-11T09:06:22.255Z,22.82
2023-04-11T09:07:22.221Z,22.83
2023-04-11T09:08:22.229Z,22.86
2023-04-11T09:09:22.177Z,22.86
2023-04-11T09:10:22.178Z,22.88
2023-04-11T09:11:22.186Z,22.87
2023-04-11T09:12:22.124Z,22.88
2023-04-11T09:13:22.195Z,22.90
2023-04-11T09:14:22.892Z,22.85
2023-04-11T09:15:22.181Z,22.86
2023-04-11T09:16:22.275Z,22.88
2023-04-11T09:17:22.266Z,22.90
2023-04-11T09:18:22.236Z,22.90
2023-04-11T09:19:22.243Z,22.89
2023-04-11T09:20:22.279Z,22.91
2023-04-11T09:21:22.319Z,22.91
2023-04-11T09:22:22.372Z,22.92
2023-04-11T09:23:23.129Z,22.93
2023-04-11T09:24:22.431Z,22.95
2023-04-11T09:25:22.453Z,22.96
2023-04-11T09:26:24.187Z,22.96
2023-04-11T09:27:22.390Z,22.97
2023-04-11T09:28:22.534Z,23.00
2023-04-11T09:29:22.369Z,23.01
2023-04-11T09:30:22.315Z,23.02
2023-04-11T09:31:22.416Z,23.05
2023-04-11T09:32:22.316Z,23.05
2023-04-11T09:33:22.240Z,23.07
2023-04-11T09:34:22.199Z,23.08
2023-04-11T09:35:22.204Z,23.11
2023-04-11T09:36:22.241Z,23.01
2023-04-11T09:37:22.152Z,22.82
2023-04-11T09:38:22.127Z,22.83
2023-04-11T09:39:22.129Z,22.84
2023-04-11T09:40:22.153Z,22.87
2023-04-11T09:41:22.093Z,22.85
2023-04-11T09:42:22.045Z,22.91
2023-04-11T09:43:22.068Z,22.90
2023-04-11T09:44:21.995Z,22.93
2023-04-11T09:45:21.999Z,22.97
2023-04-11T09:46:22.032Z,23.02
2023-04-11T09:47:21.973Z,23.00
2023-04-11T09:48:29.269Z,22.92
2023-04-11T09:49:22.908Z,22.76
2023-04-11T09:50:21.902Z,22.73
2023-04-11T09:51:35.157Z,22.80
2023-04-11T09:52:22.871Z,22.86
2023-04-11T09:53:21.817Z,22.94
2023-04-11T09:54:21.760Z,23.03
2023-04-11T09:55:21.754Z,23.09
2023-04-11T09:56:21.734Z,23.09
2023-04-11T09:57:21.670Z,23.15
2023-04-11T09:58:21.682Z,23.21
2023-04-11T09:59:21.585Z,23.25
2023-04-11T10:00:21.848Z,23.22
2023-04-11T10:01:21.568Z,23.23
2023-04-11T10:02:21.588Z,23.23
2023-04-11T10:03:21.634Z,23.23
2023-04-11T10:04:21.473Z,23.22
2023-04-11T10:05:21.449Z,23.22
2023-04-11T10:06:21.483Z,23.18
2023-04-11T10:07:21.393Z,23.10
2023-04-11T10:08:21.329Z,23.11
2023-04-11T10:09:21.349Z,23.16
2023-04-11T10:10:21.301Z,23.22
2023-04-11T10:11:23.036Z,23.22
2023-04-11T10:12:21.313Z,23.08
2023-04-11T10:13:21.261Z,23.02
2023-04-11T10:14:21.258Z,23.04
2023-04-11T10:15:21.204Z,23.02
2023-04-11T10:16:21.352Z,22.92
2023-04-11T10:17:23.509Z,22.89
2023-04-11T10:18:21.186Z,22.87
2023-04-11T10:19:21.092Z,22.81
2023-04-11T10:20:21.233Z,22.89
2023-04-11T10:21:21.089Z,22.97
2023-04-11T10:22:21.076Z,23.05
2023-04-11T10:23:21.121Z,23.13
2023-04-11T10:24:21.015Z,23.21
2023-04-11T10:25:21.053Z,23.26
2023-04-11T10:26:21.013Z,23.29
2023-04-11T10:27:20.941Z,23.34
2023-04-11T10:28:20.944Z,23.37
2023-04-11T10:29:21.037Z,23.42
2023-04-11T10:30:20.967Z,23.48
2023-04-11T10:31:20.973Z,23.55
2023-04-11T10:32:20.835Z,23.61
2023-04-11T10:33:20.843Z,23.67
2023-04-11T10:34:20.849Z,23.72
2023-04-11T10:35:20.775Z,23.76
2023-04-11T10:36:22.774Z,23.81
2023-04-11T10:37:20.784Z,23.87
2023-04-11T10:38:20.723Z,23.93
2023-04-11T10:39:20.667Z,23.97
2023-04-11T10:40:20.787Z,24.04
2023-04-11T10:41:20.621Z,24.09
2023-04-11T10:42:20.852Z,24.14
2023-04-11T10:43:20.772Z,24.20
2023-04-11T10:44:20.560Z,24.23
2023-04-11T10:45:20.507Z,24.27
2023-04-11T10:46:20.560Z,24.30
2023-04-11T10:47:20.585Z,24.35
2023-04-11T10:48:20.532Z,24.41
2023-04-11T10:49:20.773Z,24.46
2023-04-11T10:50:20.611Z,24.51
2023-04-11T10:51:20.646Z,24.55
2023-04-11T10:52:20.704Z,24.59
2023-04-11T10:53:20.732Z,24.62
2023-04-11T10:54:20.761Z,24.68
2023-04-11T10:55:20.776Z,24.72
2023-04-11T10:56:20.789Z,24.76
2023-04-11T10:57:20.862Z,24.78
2023-04-11T10:58:20.835Z,24.81
2023-04-11T10:59:20.833Z,24.84
2023-04-11T11:00:20.840Z,24.86
2023-04-11T11:01:31.364Z,24.90
2023-04-11T11:02:22.170Z,24.93
2023-04-11T11:03:20.912Z,24.96
2023-04-11T11:04:20.858Z,25.00
2023-04-11T11:05:20.660Z,25.03
2023-04-11T11:06:20.612Z,25.06
2023-04-11T11:07:20.548Z,25.08
2023-04-11T11:08:20.562Z,25.10
2023-04-11T11:09:20.545Z,25.12
2023-04-11T11:10:20.565Z,25.15
2023-04-11T11:11:20.458Z,25.16
2023-04-11T11:12:20.403Z,25.19
2023-04-11T11:13:20.376Z,25.22
2023-04-11T11:14:20.329Z,25.23
2023-04-11T11:15:20.326Z,25.26
2023-04-11T11:16:20.363Z,25.28
2023-04-11T11:17:20.320Z,25.29
2023-04-11T11:18:20.242Z,25.32
2023-04-11T11:19:20.251Z,25.35
2023-04-11T11:20:20.197Z,25.37
2023-04-11T11:21:26.774Z,25.40
2023-04-11T11:22:21.081Z,25.41
2023-04-11T11:23:20.100Z,25.44
2023-04-11T11:24:20.035Z,25.47
2023-04-11T11:25:19.970Z,25.49
2023-04-11T11:26:19.945Z,25.52
2023-04-11T11:27:19.907Z,25.53
2023-04-11T11:28:19.910Z,25.55
2023-04-11T11:29:19.860Z,25.56
2023-04-11T11:30:19.869Z,25.56
2023-04-11T11:31:19.795Z,25.57
2023-04-11T11:32:19.713Z,25.59
2023-04-11T11:33:19.731Z,25.60
2023-04-11T11:34:24.165Z,25.60
2023-04-11T11:35:19.629Z,25.60
2023-04-11T11:36:19.653Z,25.60
2023-04-11T11:37:19.546Z,25.60
2023-04-11T11:38:19.544Z,25.60
2023-04-11T11:40:20.554Z,25.62
2023-04-11T11:41:19.421Z,25.63
2023-04-11T11:42:19.394Z,25.64
2023-04-11T11:43:19.376Z,25.64
2023-04-11T11:44:19.333Z,25.63
2023-04-11T11:45:19.292Z,25.61
2023-04-11T11:46:19.270Z,25.60
2023-04-11T11:47:19.252Z,25.57
2023-04-11T11:48:19.205Z,25.55
2023-04-11T11:49:19.209Z,25.52
2023-04-11T11:50:19.178Z,25.53
2023-04-11T11:51:19.182Z,25.51
2023-04-11T11:52:19.200Z,25.49
2023-04-11T11:53:19.201Z,25.49
2023-04-11T11:54:19.202Z,25.49
2023-04-11T11:55:19.276Z,25.47
2023-04-11T11:56:19.179Z,25.48
2023-04-11T11:57:19.174Z,25.48
2023-04-11T11:58:19.129Z,25.49
2023-04-11T11:59:19.107Z,25.49
2023-04-11T12:00:19.085Z,25.49
2023-04-11T12:01:19.057Z,25.48
2023-04-11T12:02:19.108Z,25.48
2023-04-11T12:03:19.098Z,25.46
2023-04-11T12:04:19.072Z,25.46
2023-04-11T12:05:19.048Z,25.47
2023-04-11T12:06:18.924Z,25.49
2023-04-11T12:07:18.877Z,25.50
2023-04-11T12:08:18.878Z,25.51
2023-04-11T12:09:18.807Z,25.52
2023-04-11T12:10:18.761Z,25.53
2023-04-11T12:11:18.735Z,25.52
2023-04-11T12:12:18.700Z,25.53
2023-04-11T12:13:18.673Z,25.52
2023-04-11T12:14:18.611Z,25.52
2023-04-11T12:15:18.576Z,25.51
2023-04-11T12:16:18.621Z,25.51
2023-04-11T12:17:18.615Z,25.52
2023-04-11T12:18:18.473Z,25.48
2023-04-11T12:19:18.444Z,25.47
2023-04-11T12:20:18.396Z,25.47
2023-04-11T12:21:18.359Z,25.46
2023-04-11T12:22:18.319Z,25.45
2023-04-11T12:23:18.321Z,25.43
2023-04-11T12:24:18.242Z,25.42
2023-04-11T12:25:18.249Z,25.39
2023-04-11T12:26:18.186Z,25.38
2023-04-11T12:27:18.184Z,25.37
2023-04-11T12:28:18.119Z,25.37
2023-04-11T12:29:18.067Z,25.35
2023-04-11T12:30:18.032Z,25.35
2023-04-11T12:31:18.070Z,25.33
2023-04-11T12:32:17.950Z,25.33
2023-04-11T12:33:17.941Z,25.33
2023-04-11T12:34:17.873Z,25.34
2023-04-11T12:35:17.852Z,25.35
2023-04-11T12:36:17.797Z,25.37
2023-04-11T12:37:17.782Z,25.36
2023-04-11T12:38:18.145Z,25.37
2023-04-11T12:39:17.719Z,25.36
2023-04-11T12:40:17.667Z,25.37
2023-04-11T12:41:30.983Z,25.36
2023-04-11T12:42:20.966Z,25.36
2023-04-11T12:43:17.581Z,25.36
2023-04-11T12:44:17.527Z,25.36
2023-04-11T12:45:17.493Z,25.36
2023-04-11T12:46:17.472Z,25.35
2023-04-11T12:47:17.422Z,25.34
2023-04-11T12:48:17.399Z,25.37
2023-04-11T12:49:17.341Z,25.35
2023-04-11T12:50:17.377Z,25.34
2023-04-11T12:51:17.251Z,25.35
2023-04-11T12:52:17.246Z,25.34
2023-04-11T12:53:17.171Z,25.35